sensor_id;sensor_type;location;lat;lon;timestamp;pressure;altitude;pressure_sealevel;temperature;humidity
6530;BME280;3298;42.688;23.366;2022-08-21T00:00:18;65893.44;;;-145.06;100.00
6530;BME280;3298;42.688;23.366;2022-08-21T00:02:46;66203.81;;;-145.06;100.00
6530;BME280;3298;42.688;23.366;2022-08-21T00:05:15;65478.31;;;-145.06;100.00
6530;BME280;3298;42.688;23.366;2022-08-21T00:07:43;65476.25;;;-145.06;100.00
6530;BME280;3298;42.688;23.366;2022-08-21T00:10:10;65874.97;;;-145.06;100.00
6530;BME280;3298;42.688;23.366;2022-08-21T00:12:37;65971.56;;;-145.06;100.00
6530;BME280;3298;42.688;23.366;2022-08-21T00:15:06;65983.88;;;-145.06;100.00
6530;BME280;3298;42.688;23.366;2022-08-21T00:17:33;65556.41;;;-145.06;100.00
6530;BME280;3298;42.688;23.366;2022-08-21T00:20:00;65291.31;;;-145.06;100.00
6530;BME280;3298;42.688;23.366;2022-08-21T00:22:28;65431.06;;;-145.06;100.00
6530;BME280;3298;42.688;23.366;2022-08-21T00:24:55;65706.44;;;-145.06;100.00
6530;BME280;3298;42.688;23.366;2022-08-21T00:27:22;65478.31;;;-145.06;100.00
6530;BME280;3298;42.688;23.366;2022-08-21T00:29:48;65926.34;;;-145.06;100.00
6530;BME280;3298;42.688;23.366;2022-08-21T00:32:20;65768.09;;;-145.06;100.00
6530;BME280;3298;42.688;23.366;2022-08-21T00:34:47;65587.22;;;-145.06;100.00
6530;BME280;3298;42.688;23.366;2022-08-21T00:37:14;65363.25;;;-145.06;100.00
6530;BME280;3298;42.688;23.366;2022-08-21T00:39:43;65108.44;;;-145.06;100.00
6530;BME280;3298;42.688;23.366;2022-08-21T00:42:10;65453.66;;;-145.06;100.00
6530;BME280;3298;42.688;23.366;2022-08-21T00:44:40;65521.47;;;-145.06;100.00
6530;BME280;3298;42.688;23.366;2022-08-21T00:47:07;66029.09;;;-145.06;100.00
6530;BME280;3298;42.688;23.366;2022-08-21T00:49:35;66135.97;;;-145.06;100.00
6530;BME280;3298;42.688;23.366;2022-08-21T00:52:04;65856.47;;;-145.06;100.00
6530;BME280;3298;42.688;23.366;2022-08-21T00:54:33;65862.63;;;-145.06;100.00
6530;BME280;3298;42.688;23.366;2022-08-21T00:57:06;65965.38;;;-145.06;100.00
6530;BME280;3298;42.688;23.366;2022-08-21T00:59:37;65453.66;;;-145.06;100.00
6530;BME280;3298;42.688;23.366;2022-08-21T01:02:06;66510.09;;;-145.06;100.00
6530;BME280;3298;42.688;23.366;2022-08-21T01:04:34;67024.03;;;-145.06;100.00
6530;BME280;3298;42.688;23.366;2022-08-21T01:07:02;67270.75;;;-145.06;100.00
6530;BME280;3298;42.688;23.366;2022-08-21T01:09:28;67196.75;;;-145.06;100.00
6530;BME280;3298;42.688;23.366;2022-08-21T01:11:55;67546.28;;;-145.06;100.00
6530;BME280;3298;42.688;23.366;2022-08-21T01:14:23;67828.00;;;-145.06;100.00
6530;BME280;3298;42.688;23.366;2022-08-21T01:16:52;68253.72;;;-145.06;100.00
6530;BME280;3298;42.688;23.366;2022-08-21T01:19:20;68891.34;;;-145.06;100.00
6530;BME280;3298;42.688;23.366;2022-08-21T01:21:49;68494.34;;;-145.06;100.00
6530;BME280;3298;42.688;23.366;2022-08-21T01:24:16;68313.34;;;-145.06;100.00
6530;BME280;3298;42.688;23.366;2022-08-21T01:26:44;68728.84;;;-145.06;100.00
6530;BME280;3298;42.688;23.366;2022-08-21T01:29:14;70286.31;;;-145.06;100.00
6530;BME280;3298;42.688;23.366;2022-08-21T01:31:42;70971.66;;;-145.06;100.00
6530;BME280;3298;42.688;23.366;2022-08-21T01:34:10;72476.63;;;-145.06;100.00
6530;BME280;3298;42.688;23.366;2022-08-21T01:36:37;72497.22;;;-145.06;100.00
6530;BME280;3298;42.688;23.366;2022-08-21T01:39:05;72237.75;;;-145.06;100.00
6530;BME280;3298;42.688;23.366;2022-08-21T01:41:32;72818.47;;;-145.06;100.00
6530;BME280;3298;42.688;23.366;2022-08-21T01:43:59;71076.63;;;-145.06;100.00
6530;BME280;3298;42.688;23.366;2022-08-21T01:46:26;70298.66;;;-145.06;100.00
6530;BME280;3298;42.688;23.366;2022-08-21T01:48:53;71006.66;;;-145.06;100.00
6530;BME280;3298;42.688;23.366;2022-08-21T01:51:20;70387.16;;;-145.06;100.00
6530;BME280;3298;42.688;23.366;2022-08-21T01:53:47;70241.03;;;-145.06;100.00
6530;BME280;3298;42.688;23.366;2022-08-21T01:56:16;70813.19;;;-145.06;100.00
6530;BME280;3298;42.688;23.366;2022-08-21T01:58:46;71572.75;;;-145.06;100.00
6530;BME280;3298;42.688;23.366;2022-08-21T02:01:14;72892.63;;;-145.06;100.00
6530;BME280;3298;42.688;23.366;2022-08-21T02:03:41;75047.50;;;-145.06;100.00
6530;BME280;3298;42.688;23.366;2022-08-21T02:06:12;76766.59;;;-145.06;100.00
6530;BME280;3298;42.688;23.366;2022-08-21T02:08:40;78571.16;;;-145.06;100.00
6530;BME280;3298;42.688;23.366;2022-08-21T02:11:07;79652.28;;;-145.06;100.00
6530;BME280;3298;42.688;23.366;2022-08-21T02:13:35;75855.41;;;-145.06;100.00
6530;BME280;3298;42.688;23.366;2022-08-21T02:16:02;76935.69;;;-145.06;100.00
6530;BME280;3298;42.688;23.366;2022-08-21T02:18:29;78336.00;;;-145.06;100.00
6530;BME280;3298;42.688;23.366;2022-08-21T02:20:56;76007.94;;;-145.06;100.00
6530;BME280;3298;42.688;23.366;2022-08-21T02:23:23;74890.88;;;-145.06;100.00
6530;BME280;3298;42.688;23.366;2022-08-21T02:25:50;73209.78;;;-145.06;100.00
6530;BME280;3298;42.688;23.366;2022-08-21T02:28:17;72449.84;;;-145.06;100.00
6530;BME280;3298;42.688;23.366;2022-08-21T02:30:47;72717.56;;;-145.06;100.00
6530;BME280;3298;42.688;23.366;2022-08-21T02:33:14;73438.41;;;-145.06;100.00
6530;BME280;3298;42.688;23.366;2022-08-21T02:35:42;73065.63;;;-145.06;100.00
6530;BME280;3298;42.688;23.366;2022-08-21T02:38:13;73662.94;;;-145.06;100.00
6530;BME280;3298;42.688;23.366;2022-08-21T02:40:43;72085.41;;;-145.06;100.00
6530;BME280;3298;42.688;23.366;2022-08-21T02:43:11;71257.78;;;-145.06;100.00
6530;BME280;3298;42.688;23.366;2022-08-21T02:45:38;70778.19;;;-145.06;100.00
6530;BME280;3298;42.688;23.366;2022-08-21T02:48:09;71033.41;;;-145.06;100.00
6530;BME280;3298;42.688;23.366;2022-08-21T02:50:38;70990.19;;;-145.06;100.00
6530;BME280;3298;42.688;23.366;2022-08-21T02:53:06;71681.84;;;-145.06;100.00
6530;BME280;3298;42.688;23.366;2022-08-21T02:55:35;72231.59;;;-145.06;100.00
6530;BME280;3298;42.688;23.366;2022-08-21T02:58:04;67819.78;;;-145.06;100.00
6530;BME280;3298;42.688;23.366;2022-08-21T03:00:34;68957.16;;;-145.06;100.00
6530;BME280;3298;42.688;23.366;2022-08-21T03:03:01;68730.88;;;-145.06;100.00
6530;BME280;3298;42.688;23.366;2022-08-21T03:05:31;69164.94;;;-145.06;100.00
6530;BME280;3298;42.688;23.366;2022-08-21T03:07:59;69854.19;;;-145.06;100.00
6530;BME280;3298;42.688;23.366;2022-08-21T03:10:26;69763.66;;;-145.06;100.00
6530;BME280;3298;42.688;23.366;2022-08-21T03:12:54;69613.44;;;-145.06;100.00
6530;BME280;3298;42.688;23.366;2022-08-21T03:15:22;69706.03;;;-145.06;100.00
6530;BME280;3298;42.688;23.366;2022-08-21T03:17:51;70436.53;;;-145.06;100.00
6530;BME280;3298;42.688;23.366;2022-08-21T03:20:22;70467.41;;;-145.06;100.00
6530;BME280;3298;42.688;23.366;2022-08-21T03:22:50;70053.78;;;-145.06;100.00
6530;BME280;3298;42.688;23.366;2022-08-21T03:25:18;70510.63;;;-145.06;100.00
6530;BME280;3298;42.688;23.366;2022-08-21T03:27:46;71117.81;;;-145.06;100.00
6530;BME280;3298;42.688;23.366;2022-08-21T03:30:14;73176.81;;;-145.06;100.00
6530;BME280;3298;42.688;23.366;2022-08-21T03:32:41;74721.91;;;-145.06;100.00
6530;BME280;3298;42.688;23.366;2022-08-21T03:35:08;73203.59;;;-145.06;100.00
6530;BME280;3298;42.688;23.366;2022-08-21T03:37:35;73098.56;;;-145.06;100.00
6530;BME280;3298;42.688;23.366;2022-08-21T03:40:05;73475.50;;;-145.06;100.00
6530;BME280;3298;42.688;23.366;2022-08-21T03:42:32;74468.47;;;-145.06;100.00
6530;BME280;3298;42.688;23.366;2022-08-21T03:45:00;74991.84;;;-145.06;100.00
6530;BME280;3298;42.688;23.366;2022-08-21T03:47:27;76166.69;;;-145.06;100.00
6530;BME280;3298;42.688;23.366;2022-08-21T03:49:54;77331.59;;;-145.06;100.00
6530;BME280;3298;42.688;23.366;2022-08-21T03:52:21;77447.06;;;-145.06;100.00
6530;BME280;3298;42.688;23.366;2022-08-21T03:54:48;77925.53;;;-145.06;100.00
6530;BME280;3298;42.688;23.366;2022-08-21T03:57:17;79018.84;;;-145.06;100.00
6530;BME280;3298;42.688;23.366;2022-08-21T03:59:43;80465.41;;;-145.06;100.00
6530;BME280;3298;42.688;23.366;2022-08-21T04:02:13;80876.16;;;-145.06;100.00
6530;BME280;3298;42.688;23.366;2022-08-21T04:04:42;80843.13;;;-145.06;100.00
6530;BME280;3298;42.688;23.366;2022-08-21T04:07:09;79604.81;;;-145.06;100.00
6530;BME280;3298;42.688;23.366;2022-08-21T04:09:35;80347.75;;;-145.06;100.00
6530;BME280;3298;42.688;23.366;2022-08-21T04:12:03;76389.31;;;-145.06;100.00
6530;BME280;3298;42.688;23.366;2022-08-21T04:14:32;75216.47;;;-145.06;100.00
6530;BME280;3298;42.688;23.366;2022-08-21T04:16:59;76007.94;;;-145.06;100.00
6530;BME280;3298;42.688;23.366;2022-08-21T04:19:25;76690.31;;;-145.06;100.00
6530;BME280;3298;42.688;23.366;2022-08-21T04:21:52;75748.22;;;-145.06;100.00
6530;BME280;3298;42.688;23.366;2022-08-21T04:24:19;76562.50;;;-145.06;100.00
6530;BME280;3298;42.688;23.366;2022-08-21T04:26:46;78168.91;;;-145.06;100.00
6530;BME280;3298;42.688;23.366;2022-08-21T04:29:13;79726.56;;;-145.06;100.00
6530;BME280;3298;42.688;23.366;2022-08-21T04:31:41;76176.97;;;-145.06;100.00
6530;BME280;3298;42.688;23.366;2022-08-21T04:34:09;75117.56;;;-145.06;100.00
6530;BME280;3298;42.688;23.366;2022-08-21T04:36:35;73205.66;;;-145.06;100.00
6530;BME280;3298;42.688;23.366;2022-08-21T04:39:02;72968.81;;;-145.06;100.00
6530;BME280;3298;42.688;23.366;2022-08-21T04:41:29;73551.72;;;-145.06;100.00
6530;BME280;3298;42.688;23.366;2022-08-21T04:43:56;73133.56;;;-145.06;100.00
6530;BME280;3298;42.688;23.366;2022-08-21T04:46:23;74849.66;;;-145.06;100.00
6530;BME280;3298;42.688;23.366;2022-08-21T04:48:51;70940.78;;;-145.06;100.00
6530;BME280;3298;42.688;23.366;2022-08-21T04:51:23;70533.28;;;-145.06;100.00
6530;BME280;3298;42.688;23.366;2022-08-21T04:53:52;70755.53;;;-145.06;100.00
6530;BME280;3298;42.688;23.366;2022-08-21T04:56:22;70072.28;;;-145.06;100.00
6530;BME280;3298;42.688;23.366;2022-08-21T04:58:51;69383.00;;;-145.06;100.00
6530;BME280;3298;42.688;23.366;2022-08-21T05:01:21;68292.78;;;-145.06;100.00
6530;BME280;3298;42.688;23.366;2022-08-21T05:03:52;66614.94;;;-145.06;100.00
6530;BME280;3298;42.688;23.366;2022-08-21T05:06:21;65400.22;;;-145.06;100.00
6530;BME280;3298;42.688;23.366;2022-08-21T05:08:49;64148.97;;;-145.06;100.00
6530;BME280;3298;42.688;23.366;2022-08-21T05:11:19;62775.00;;;-145.06;100.00
6530;BME280;3298;42.688;23.366;2022-08-21T05:13:47;61867.53;;;-145.06;100.00
6530;BME280;3298;42.688;23.366;2022-08-21T05:16:14;61598.63;;;-145.06;100.00
6530;BME280;3298;42.688;23.366;2022-08-21T05:18:41;61292.78;;;-145.06;100.00
6530;BME280;3298;42.688;23.366;2022-08-21T05:21:09;61241.47;;;-145.06;100.00
6530;BME280;3298;42.688;23.366;2022-08-21T05:23:36;61307.16;;;-145.06;100.00
6530;BME280;3298;42.688;23.366;2022-08-21T05:26:03;62078.97;;;-145.06;100.00
6530;BME280;3298;42.688;23.366;2022-08-21T05:28:30;60810.47;;;-145.06;100.00
6530;BME280;3298;42.688;23.366;2022-08-21T05:30:57;60845.38;;;-145.06;100.00
6530;BME280;3298;42.688;23.366;2022-08-21T05:33:24;61280.47;;;-145.06;100.00
6530;BME280;3298;42.688;23.366;2022-08-21T05:35:52;61444.66;;;-145.06;100.00
6530;BME280;3298;42.688;23.366;2022-08-21T05:38:22;61319.47;;;-145.06;100.00
6530;BME280;3298;42.688;23.366;2022-08-21T05:40:49;61153.22;;;-145.06;100.00
6530;BME280;3298;42.688;23.366;2022-08-21T05:43:16;60915.16;;;-145.06;100.00
6530;BME280;3298;42.688;23.366;2022-08-21T05:45:42;60962.34;;;-145.06;100.00
6530;BME280;3298;42.688;23.366;2022-08-21T05:48:11;60874.09;;;-145.06;100.00
6530;BME280;3298;42.688;23.366;2022-08-21T05:50:38;60968.50;;;-145.06;100.00
6530;BME280;3298;42.688;23.366;2022-08-21T05:53:06;60898.72;;;-145.06;100.00
6530;BME280;3298;42.688;23.366;2022-08-21T05:55:35;61064.97;;;-145.06;100.00
6530;BME280;3298;42.688;23.366;2022-08-21T05:58:02;61073.16;;;-145.06;100.00
6530;BME280;3298;42.688;23.366;2022-08-21T06:00:28;61089.59;;;-145.06;100.00
6530;BME280;3298;42.688;23.366;2022-08-21T06:02:55;61116.28;;;-145.06;100.00
6530;BME280;3298;42.688;23.366;2022-08-21T06:05:22;61181.94;;;-145.06;100.00
6530;BME280;3298;42.688;23.366;2022-08-21T06:07:49;61075.22;;;-145.06;100.00
6530;BME280;3298;42.688;23.366;2022-08-21T06:10:16;61032.13;;;-145.06;100.00
6530;BME280;3298;42.688;23.366;2022-08-21T06:12:45;61165.53;;;-145.06;100.00
6530;BME280;3298;42.688;23.366;2022-08-21T06:15:11;61138.84;;;-145.06;100.00
6530;BME280;3298;42.688;23.366;2022-08-21T06:17:38;60980.81;;;-145.06;100.00
6530;BME280;3298;42.688;23.366;2022-08-21T06:20:06;60984.94;;;-145.06;100.00
6530;BME280;3298;42.688;23.366;2022-08-21T06:22:33;61054.69;;;-145.06;100.00
6530;BME280;3298;42.688;23.366;2022-08-21T06:25:00;61446.72;;;-145.06;100.00
6530;BME280;3298;42.688;23.366;2022-08-21T06:27:27;61149.13;;;-145.06;100.00
6530;BME280;3298;42.688;23.366;2022-08-21T06:29:55;61001.34;;;-145.06;100.00
6530;BME280;3298;42.688;23.366;2022-08-21T06:32:23;61124.47;;;-145.06;100.00
6530;BME280;3298;42.688;23.366;2022-08-21T06:34:50;61079.34;;;-145.06;100.00
6530;BME280;3298;42.688;23.366;2022-08-21T06:37:17;60943.88;;;-145.06;100.00
6530;BME280;3298;42.688;23.366;2022-08-21T06:39:43;60867.94;;;-145.06;100.00
6530;BME280;3298;42.688;23.366;2022-08-21T06:42:13;60835.09;;;-145.06;100.00
6530;BME280;3298;42.688;23.366;2022-08-21T06:44:40;60878.19;;;-145.06;100.00
6530;BME280;3298;42.688;23.366;2022-08-21T06:47:08;60808.44;;;-145.06;100.00
6530;BME280;3298;42.688;23.366;2022-08-21T06:49:35;60900.78;;;-145.06;100.00
6530;BME280;3298;42.688;23.366;2022-08-21T06:52:03;60952.09;;;-145.06;100.00
6530;BME280;3298;42.688;23.366;2022-08-21T06:54:29;61110.13;;;-145.06;100.00
6530;BME280;3298;42.688;23.366;2022-08-21T06:56:56;61157.31;;;-145.06;100.00
6530;BME280;3298;42.688;23.366;2022-08-21T06:59:23;61108.06;;;-145.06;100.00
6530;BME280;3298;42.688;23.366;2022-08-21T07:01:50;61069.06;;;-145.06;100.00
6530;BME280;3298;42.688;23.366;2022-08-21T07:04:18;61025.97;;;-145.06;100.00
6530;BME280;3298;42.688;23.366;2022-08-21T07:06:45;61050.59;;;-145.06;100.00
6530;BME280;3298;42.688;23.366;2022-08-21T07:09:12;61001.34;;;-145.06;100.00
6530;BME280;3298;42.688;23.366;2022-08-21T07:11:38;60980.81;;;-145.06;100.00
6530;BME280;3298;42.688;23.366;2022-08-21T07:14:05;60909.00;;;-145.06;100.00
6530;BME280;3298;42.688;23.366;2022-08-21T07:16:32;61132.69;;;-145.06;100.00
6530;BME280;3298;42.688;23.366;2022-08-21T07:18:59;61038.28;;;-145.06;100.00
6530;BME280;3298;42.688;23.366;2022-08-21T07:21:27;60976.72;;;-145.06;100.00
6530;BME280;3298;42.688;23.366;2022-08-21T07:23:54;61064.97;;;-145.06;100.00
6530;BME280;3298;42.688;23.366;2022-08-21T07:26:22;61089.59;;;-145.06;100.00
6530;BME280;3298;42.688;23.366;2022-08-21T07:28:50;61017.75;;;-145.06;100.00
6530;BME280;3298;42.688;23.366;2022-08-21T07:31:19;60900.78;;;-145.06;100.00
6530;BME280;3298;42.688;23.366;2022-08-21T07:33:47;62062.56;;;-145.06;100.00
6530;BME280;3298;42.688;23.366;2022-08-21T07:36:14;61021.88;;;-145.06;100.00
6530;BME280;3298;42.688;23.366;2022-08-21T07:38:42;61333.84;;;-145.06;100.00
6530;BME280;3298;42.688;23.366;2022-08-21T07:41:14;61007.50;;;-145.06;100.00
6530;BME280;3298;42.688;23.366;2022-08-21T07:43:41;61089.59;;;-145.06;100.00
6530;BME280;3298;42.688;23.366;2022-08-21T07:46:09;61116.28;;;-145.06;100.00
6530;BME280;3298;42.688;23.366;2022-08-21T07:48:35;61073.16;;;-145.06;100.00
6530;BME280;3298;42.688;23.366;2022-08-21T07:51:10;61124.47;;;-145.06;100.00
6530;BME280;3298;42.688;23.366;2022-08-21T07:53:37;61108.06;;;-145.06;100.00
6530;BME280;3298;42.688;23.366;2022-08-21T07:56:07;61095.75;;;-145.06;100.00
6530;BME280;3298;42.688;23.366;2022-08-21T07:58:36;61101.91;;;-145.06;100.00
6530;BME280;3298;42.688;23.366;2022-08-21T08:01:03;61034.19;;;-145.06;97.93
6530;BME280;3298;42.688;23.366;2022-08-21T08:03:31;61103.97;;;-145.06;97.32
6530;BME280;3298;42.688;23.366;2022-08-21T08:05:57;61112.16;;;-145.06;98.55
6530;BME280;3298;42.688;23.366;2022-08-21T08:08:24;61157.31;;;-145.06;98.04
6530;BME280;3298;42.688;23.366;2022-08-21T08:10:52;61138.84;;;-145.06;96.95
6530;BME280;3298;42.688;23.366;2022-08-21T08:13:20;61196.31;;;-145.06;95.12
6530;BME280;3298;42.688;23.366;2022-08-21T08:15:47;61264.03;;;-145.06;95.77
6530;BME280;3298;42.688;23.366;2022-08-21T08:18:14;61325.63;;;-145.06;94.52
6530;BME280;3298;42.688;23.366;2022-08-21T08:20:41;61270.19;;;-145.06;94.97
6530;BME280;3298;42.688;23.366;2022-08-21T08:23:09;61301.00;;;-145.06;95.57
6530;BME280;3298;42.688;23.366;2022-08-21T08:25:36;61120.38;;;-145.06;94.78
6530;BME280;3298;42.688;23.366;2022-08-21T08:28:04;61210.69;;;-145.06;93.37
6530;BME280;3298;42.688;23.366;2022-08-21T08:30:33;64699.56;;;-145.06;94.23
6530;BME280;3298;42.688;23.366;2022-08-21T08:33:00;61136.78;;;-145.06;95.23
6530;BME280;3298;42.688;23.366;2022-08-21T08:35:26;61132.69;;;-145.06;95.76
6530;BME280;3298;42.688;23.366;2022-08-21T08:37:54;61138.84;;;-145.06;95.97
6530;BME280;3298;42.688;23.366;2022-08-21T08:43:07;61108.06;;;-145.06;96.31
6530;BME280;3298;42.688;23.366;2022-08-21T08:45:37;61116.28;;;-145.06;97.74
6530;BME280;3298;42.688;23.366;2022-08-21T08:48:10;61116.28;;;-145.06;98.96
6530;BME280;3298;42.688;23.366;2022-08-21T08:50:44;61147.06;;;-145.06;98.94
6530;BME280;3298;42.688;23.366;2022-08-21T08:53:14;61161.44;;;-145.06;97.06
6530;BME280;3298;42.688;23.366;2022-08-21T08:55:44;61079.34;;;-145.06;95.83
6530;BME280;3298;42.688;23.366;2022-08-21T08:58:16;61124.47;;;-145.06;94.58
6530;BME280;3298;42.688;23.366;2022-08-21T09:00:49;61214.78;;;-145.06;93.68
6530;BME280;3298;42.688;23.366;2022-08-21T09:03:17;61249.69;;;-145.06;92.43
6530;BME280;3298;42.688;23.366;2022-08-21T09:05:46;61257.88;;;-145.06;90.59
6530;BME280;3298;42.688;23.366;2022-08-21T09:08:37;61227.09;;;-145.06;89.69
6530;BME280;3298;42.688;23.366;2022-08-21T09:11:15;61118.31;;;-145.06;89.69
6530;BME280;3298;42.688;23.366;2022-08-21T09:13:50;61241.47;;;-145.06;89.52
6530;BME280;3298;42.688;23.366;2022-08-21T09:16:24;61296.88;;;-145.06;88.85
6530;BME280;3298;42.688;23.366;2022-08-21T09:19:01;61354.34;;;-145.06;87.79
6530;BME280;3298;42.688;23.366;2022-08-21T09:21:37;61348.19;;;-145.06;85.07
6530;BME280;3298;42.688;23.366;2022-08-21T09:24:22;61264.03;;;-145.06;88.07
6530;BME280;3298;42.688;23.366;2022-08-21T09:27:02;61259.94;;;-145.06;88.39
6530;BME280;3298;42.688;23.366;2022-08-21T09:29:33;61292.78;;;-145.06;86.91
6530;BME280;3298;42.688;23.366;2022-08-21T09:32:04;61118.31;;;-145.06;86.55
6530;BME280;3298;42.688;23.366;2022-08-21T09:34:35;61403.63;;;-145.06;85.89
6530;BME280;3298;42.688;23.366;2022-08-21T09:37:02;61274.31;;;-145.06;84.06
6530;BME280;3298;42.688;23.366;2022-08-21T09:39:31;61374.88;;;-145.06;84.19
6530;BME280;3298;42.688;23.366;2022-08-21T09:42:00;61450.81;;;-145.06;84.35
6530;BME280;3298;42.688;23.366;2022-08-21T09:44:29;61145.00;;;-145.06;83.85
6530;BME280;3298;42.688;23.366;2022-08-21T09:46:57;61459.03;;;-145.06;84.09
6530;BME280;3298;42.688;23.366;2022-08-21T09:49:30;61268.16;;;-145.06;83.63
6530;BME280;3298;42.688;23.366;2022-08-21T09:51:58;61116.28;;;-145.06;83.29
6530;BME280;3298;42.688;23.366;2022-08-21T09:54:29;61276.38;;;-145.06;83.76
6530;BME280;3298;42.688;23.366;2022-08-21T09:56:58;61231.22;;;-145.06;83.46
6530;BME280;3298;42.688;23.366;2022-08-21T09:59:43;61438.50;;;-145.06;83.26
6530;BME280;3298;42.688;23.366;2022-08-21T10:02:23;61485.72;;;-145.06;83.19
6530;BME280;3298;42.688;23.366;2022-08-21T10:04:53;61520.63;;;-145.06;84.09
6530;BME280;3298;42.688;23.366;2022-08-21T10:07:22;62787.31;;;-145.06;85.52
6530;BME280;3298;42.688;23.366;2022-08-21T10:09:59;61473.41;;;-145.06;87.73
6530;BME280;3298;42.688;23.366;2022-08-21T10:12:33;61475.47;;;-145.06;87.83
6530;BME280;3298;42.688;23.366;2022-08-21T10:15:12;61424.16;;;-145.06;86.80
6530;BME280;3298;42.688;23.366;2022-08-21T10:17:46;61438.50;;;-145.06;86.95
6530;BME280;3298;42.688;23.366;2022-08-21T10:20:22;61413.88;;;-145.06;86.94
6530;BME280;3298;42.688;23.366;2022-08-21T10:23:01;61403.63;;;-145.06;87.19
6530;BME280;3298;42.688;23.366;2022-08-21T10:25:33;61227.09;;;-145.06;88.22
6530;BME280;3298;42.688;23.366;2022-08-21T10:28:08;61268.16;;;-145.06;86.31
6530;BME280;3298;42.688;23.366;2022-08-21T10:30:44;61214.78;;;-145.06;85.20
6530;BME280;3298;42.688;23.366;2022-08-21T10:33:20;61179.91;;;-145.06;85.92
6530;BME280;3298;42.688;23.366;2022-08-21T10:35:52;61239.41;;;-145.06;84.91
6530;BME280;3298;42.688;23.366;2022-08-21T10:38:49;61309.19;;;-145.06;84.01
6530;BME280;3298;42.688;23.366;2022-08-21T10:41:29;61356.41;;;-145.06;84.11
6530;BME280;3298;42.688;23.366;2022-08-21T10:44:04;61465.19;;;-145.06;83.23
6530;BME280;3298;42.688;23.366;2022-08-21T10:46:47;61452.88;;;-145.06;81.48
6530;BME280;3298;42.688;23.366;2022-08-21T10:49:23;61434.41;;;-145.06;81.54
6530;BME280;3298;42.688;23.366;2022-08-21T10:52:04;61555.50;;;-145.06;77.94
6530;BME280;3298;42.688;23.366;2022-08-21T10:54:40;61662.25;;;-145.06;77.33
6530;BME280;3298;42.688;23.366;2022-08-21T10:57:14;61420.03;;;-145.06;77.74
6530;BME280;3298;42.688;23.366;2022-08-21T10:59:47;61477.50;;;-145.06;77.77
6530;BME280;3298;42.688;23.366;2022-08-21T11:02:20;61610.94;;;-145.06;77.57
6530;BME280;3298;42.688;23.366;2022-08-21T11:04:56;61588.34;;;-145.06;75.54
6530;BME280;3298;42.688;23.366;2022-08-21T11:07:30;61871.63;;;-145.06;73.36
6530;BME280;3298;42.688;23.366;2022-08-21T11:10:03;61559.63;;;-145.06;73.03
6530;BME280;3298;42.688;23.366;2022-08-21T11:12:38;61584.25;;;-145.06;74.58
6530;BME280;3298;42.688;23.366;2022-08-21T11:15:14;61805.94;;;-145.06;71.08
6530;BME280;3298;42.688;23.366;2022-08-21T11:17:44;61945.53;;;-145.06;70.43
6530;BME280;3298;42.688;23.366;2022-08-21T11:20:20;62019.44;;;-145.06;65.96
6530;BME280;3298;42.688;23.366;2022-08-21T11:22:56;61713.56;;;-145.06;65.84
6530;BME280;3298;42.688;23.366;2022-08-21T11:25:29;61935.28;;;-145.06;64.78
6530;BME280;3298;42.688;23.366;2022-08-21T11:28:04;64759.13;;;-145.06;66.86
6530;BME280;3298;42.688;23.366;2022-08-21T11:30:40;62027.66;;;-145.06;66.33
6530;BME280;3298;42.688;23.366;2022-08-21T11:33:26;61994.81;;;-145.06;66.68
6530;BME280;3298;42.688;23.366;2022-08-21T11:35:59;62074.88;;;-145.06;67.55
6530;BME280;3298;42.688;23.366;2022-08-21T11:38:35;61964.00;;;-145.06;68.47
6530;BME280;3298;42.688;23.366;2022-08-21T11:41:22;61801.84;;;-145.06;67.25
6530;BME280;3298;42.688;23.366;2022-08-21T11:43:55;61532.94;;;-145.06;68.47
6530;BME280;3298;42.688;23.366;2022-08-21T11:46:32;61740.25;;;-145.06;67.76
6530;BME280;3298;42.688;23.366;2022-08-21T11:49:09;61838.78;;;-145.06;67.66
6530;BME280;3298;42.688;23.366;2022-08-21T11:51:46;61769.00;;;-145.06;67.03
6530;BME280;3298;42.688;23.366;2022-08-21T11:54:23;61760.78;;;-145.06;67.55
6530;BME280;3298;42.688;23.366;2022-08-21T11:56:57;61814.16;;;-145.06;66.80
6530;BME280;3298;42.688;23.366;2022-08-21T11:59:34;61840.84;;;-145.06;67.72
6530;BME280;3298;42.688;23.366;2022-08-21T12:02:07;61764.88;;;-145.06;68.86
6530;BME280;3298;42.688;23.366;2022-08-21T12:04:44;61808.00;;;-145.06;69.87
6530;BME280;3298;42.688;23.366;2022-08-21T12:07:13;61769.00;;;-145.06;69.59
6530;BME280;3298;42.688;23.366;2022-08-21T12:09:52;61732.03;;;-145.06;70.30
6530;BME280;3298;42.688;23.366;2022-08-21T12:12:25;61703.31;;;-145.06;71.24
6530;BME280;3298;42.688;23.366;2022-08-21T12:15:13;61520.63;;;-145.06;72.11
6530;BME280;3298;42.688;23.366;2022-08-21T12:17:52;61691.00;;;-145.06;72.47
6530;BME280;3298;42.688;23.366;2022-08-21T12:20:26;61693.03;;;-145.06;71.75
6530;BME280;3298;42.688;23.366;2022-08-21T12:23:04;61666.34;;;-145.06;71.42
6530;BME280;3298;42.688;23.366;2022-08-21T12:25:39;61651.97;;;-145.06;72.14
6530;BME280;3298;42.688;23.366;2022-08-21T12:28:08;61682.78;;;-145.06;72.02
6530;BME280;3298;42.688;23.366;2022-08-21T12:30:38;61672.50;;;-145.06;72.91
6530;BME280;3298;42.688;23.366;2022-08-21T12:33:19;61498.03;;;-145.06;73.42
6530;BME280;3298;42.688;23.366;2022-08-21T12:35:47;61645.81;;;-145.06;71.95
6530;BME280;3298;42.688;23.366;2022-08-21T12:38:18;61617.09;;;-145.06;72.63
6530;BME280;3298;42.688;23.366;2022-08-21T12:40:52;61567.81;;;-145.06;73.41
6530;BME280;3298;42.688;23.366;2022-08-21T12:43:26;61654.03;;;-145.06;73.85
6530;BME280;3298;42.688;23.366;2022-08-21T12:45:54;61643.78;;;-145.06;74.61
6530;BME280;3298;42.688;23.366;2022-08-21T12:48:26;61666.34;;;-145.06;74.69
6530;BME280;3298;42.688;23.366;2022-08-21T12:50:55;61633.50;;;-145.06;75.10
6530;BME280;3298;42.688;23.366;2022-08-21T12:53:27;61647.88;;;-145.06;74.00
6530;BME280;3298;42.688;23.366;2022-08-21T12:56:01;61711.50;;;-145.06;74.73
6530;BME280;3298;42.688;23.366;2022-08-21T12:58:30;61658.16;;;-145.06;75.13